Time;durP1;ratioP1;P1;durP2;ratioP2;P2;SDS_P1;SDS_P2;PMS_P1;PMS_P2;Temp;Humidity;BMP_temperature;BMP_pressure;BME280_temperature;BME280_humidity;BME280_pressure;Samples;Min_cycle;Max_cycle;Signal;HPM_P1;HPM_P2
2023/12/13 00:01:35;;;;;;;5.13;2.77;;;12.30;51.30;;;;;;10426998;28;20779;-77
2023/12/13 00:06:38;;;;;;;1.67;1.20;;;12.40;51.00;;;;;;10426553;28;20233;-77
2023/12/13 00:11:43;;;;;;;0.90;0.90;;;12.40;51.10;;;;;;10429123;28;20715;-77
2023/12/13 00:16:46;;;;;;;0.70;0.70;;;12.40;51.40;;;;;;10429944;28;20236;-77
2023/12/13 00:21:49;;;;;;;0.83;0.80;;;12.40;51.10;;;;;;10435542;28;20240;-77
2023/12/13 00:26:54;;;;;;;0.70;0.70;;;12.40;51.10;;;;;;10438357;28;20602;-77
2023/12/13 00:31:59;;;;;;;0.70;0.70;;;12.40;51.50;;;;;;10439674;28;20229;-77
2023/12/13 00:37:02;;;;;;;0.80;0.80;;;12.50;51.30;;;;;;10437417;28;20233;-76
2023/12/13 00:42:07;;;;;;;0.60;0.60;;;12.50;51.30;;;;;;10437861;28;20228;-77
2023/12/13 00:47:10;;;;;;;0.50;0.50;;;12.50;51.50;;;;;;10437494;28;20236;-77
2023/12/13 00:52:13;;;;;;;0.60;0.60;;;12.50;51.20;;;;;;10436980;28;20946;-77
2023/12/13 00:57:18;;;;;;;0.77;0.73;;;12.50;51.20;;;;;;10433172;28;20949;-77
2023/12/13 01:02:21;;;;;;;0.70;0.70;;;12.50;51.40;;;;;;10433854;28;20321;-78
2023/12/13 01:07:25;;;;;;;0.60;0.60;;;12.60;51.20;;;;;;10432460;28;20237;-78
2023/12/13 01:12:29;;;;;;;1.00;0.73;;;12.60;51.20;;;;;;10433888;28;20236;-77
2023/12/13 01:17:33;;;;;;;0.60;0.60;;;12.50;50.90;;;;;;10395360;28;20225;-77
2023/12/13 01:22:37;;;;;;;0.60;0.60;;;12.60;50.40;;;;;;10432869;28;20236;-78
2023/12/13 01:27:41;;;;;;;0.50;0.50;;;12.60;50.10;;;;;;10431743;28;20248;-77
2023/12/13 01:32:44;;;;;;;0.97;0.50;;;12.60;49.80;;;;;;10431213;28;20235;-77
2023/12/13 01:37:48;;;;;;;0.60;0.60;;;12.60;49.30;;;;;;10418911;28;20236;-77
2023/12/13 01:42:52;;;;;;;0.73;0.50;;;12.60;49.10;;;;;;10430625;28;20233;-77
2023/12/13 01:47:55;;;;;;;0.40;0.40;;;12.60;48.80;;;;;;10426226;28;20241;-77
2023/12/13 01:52:59;;;;;;;1.27;0.50;;;12.60;48.60;;;;;;10431337;28;20244;-76
2023/12/13 01:58:05;;;;;;;0.40;0.40;;;12.60;48.40;;;;;;10429020;28;20229;-76
2023/12/13 02:03:11;;;;;;;0.40;0.40;;;12.50;48.10;;;;;;10422609;28;20315;-76
2023/12/13 02:08:14;;;;;;;0.50;0.50;;;12.50;48.10;;;;;;10425597;28;20261;-77
2023/12/13 02:13:18;;;;;;;0.50;0.50;;;12.50;48.10;;;;;;10429533;28;20576;-77
2023/12/13 02:18:22;;;;;;;0.80;0.50;;;12.40;47.80;;;;;;10427285;28;20298;-78
2023/12/13 02:23:27;;;;;;;0.60;0.60;;;12.40;47.90;;;;;;10421967;28;20233;-78
2023/12/13 02:28:31;;;;;;;0.83;0.57;;;12.30;47.90;;;;;;10425142;28;20328;-77
2023/12/13 02:33:34;;;;;;;0.57;0.57;;;12.10;47.90;;;;;;10426003;28;20225;-77
2023/12/13 02:38:40;;;;;;;4.37;3.40;;;12.00;48.10;;;;;;10427805;28;20315;-77
2023/12/13 02:43:43;;;;;;;0.90;0.90;;;11.90;48.20;;;;;;10426756;28;20756;-77
2023/12/13 02:48:47;;;;;;;0.97;0.70;;;11.80;48.40;;;;;;10428401;28;20243;-78
2023/12/13 02:53:51;;;;;;;0.60;0.60;;;11.60;48.30;;;;;;10421193;28;20282;-77
2023/12/13 02:58:54;;;;;;;1.83;1.27;;;11.60;48.40;;;;;;10427305;28;20233;-77
2023/12/13 03:03:58;;;;;;;4.70;2.90;;;11.50;48.40;;;;;;10428411;28;20236;-77
2023/12/13 03:09:02;;;;;;;4.30;2.53;;;11.40;48.40;;;;;;10426760;28;20229;-77
2023/12/13 03:14:05;;;;;;;4.47;3.27;;;11.40;48.60;;;;;;10426821;28;20225;-78
2023/12/13 03:19:09;;;;;;;2.83;2.17;;;11.30;48.50;;;;;;10427650;28;20235;-76
2023/12/13 03:24:14;;;;;;;4.57;2.87;;;11.30;48.60;;;;;;10426152;28;20233;-77
2023/12/13 03:29:18;;;;;;;5.80;5.20;;;11.30;48.70;;;;;;10414569;28;20224;-77
2023/12/13 03:34:21;;;;;;;3.77;3.10;;;11.30;48.50;;;;;;10427752;28;20884;-77
2023/12/13 03:39:25;;;;;;;6.60;5.90;;;11.30;48.30;;;;;;10426879;28;20256;-77
2023/12/13 03:44:29;;;;;;;4.37;3.97;;;11.30;48.30;;;;;;10427230;28;20324;-77
2023/12/13 03:49:32;;;;;;;2.17;1.97;;;11.40;48.40;;;;;;10426407;28;20233;-77
2023/12/13 03:54:37;;;;;;;2.80;2.03;;;11.40;48.10;;;;;;10412281;28;20268;-77
2023/12/13 03:59:40;;;;;;;1.07;0.97;;;11.50;47.70;;;;;;10433159;28;20925;-76
2023/12/13 04:04:43;;;;;;;1.90;1.70;;;11.50;47.40;;;;;;10434575;28;20240;-76
2023/12/13 04:09:48;;;;;;;0.90;0.90;;;11.50;47.20;;;;;;10434424;28;20889;-77
2023/12/13 04:14:51;;;;;;;1.10;1.00;;;11.50;47.20;;;;;;10433988;28;20243;-78
2023/12/13 04:19:57;;;;;;;0.90;0.90;;;11.50;47.20;;;;;;10431762;28;20229;-77
2023/12/13 04:25:02;;;;;;;1.47;1.10;;;11.40;47.10;;;;;;10408403;28;20953;-77
2023/12/13 04:30:06;;;;;;;2.93;1.47;;;11.40;47.10;;;;;;10432031;28;20367;-76
2023/12/13 04:35:10;;;;;;;1.37;1.27;;;11.40;47.10;;;;;;10432279;28;20236;-77
2023/12/13 04:40:15;;;;;;;1.77;1.00;;;11.40;47.10;;;;;;10432703;28;20275;-77
2023/12/13 04:45:18;;;;;;;1.80;0.80;;;11.40;47.00;;;;;;10427051;28;20283;-77
2023/12/13 04:50:21;;;;;;;0.93;0.70;;;11.30;46.90;;;;;;10432527;28;20647;-77
2023/12/13 04:55:26;;;;;;;0.90;0.73;;;11.20;46.90;;;;;;10432008;28;20237;-77
2023/12/13 05:00:30;;;;;;;1.27;1.10;;;11.10;47.00;;;;;;10431810;28;20229;-77
2023/12/13 05:05:33;;;;;;;0.90;0.90;;;11.10;47.40;;;;;;10427704;28;20232;-77
2023/12/13 05:10:40;;;;;;;1.70;1.60;;;11.00;47.40;;;;;;10432114;28;20237;-77
2023/12/13 05:15:44;;;;;;;1.70;1.60;;;11.00;47.40;;;;;;10428202;28;20239;-77
2023/12/13 05:20:48;;;;;;;1.80;1.70;;;11.00;47.10;;;;;;10428975;28;20316;-77
2023/12/13 05:25:53;;;;;;;2.80;2.60;;;11.00;46.70;;;;;;10423816;28;20833;-76
2023/12/13 05:30:56;;;;;;;2.40;2.20;;;11.00;46.70;;;;;;10425544;28;20340;-77
2023/12/13 05:35:59;;;;;;;2.70;2.50;;;11.00;46.70;;;;;;10428360;28;20283;-76
2023/12/13 05:41:04;;;;;;;2.40;2.20;;;11.00;46.50;;;;;;10425355;28;20309;-77
2023/12/13 05:46:08;;;;;;;2.53;2.30;;;11.00;46.20;;;;;;10428430;28;20279;-77
2023/12/13 05:51:12;;;;;;;2.40;2.20;;;10.90;46.10;;;;;;10428126;28;20229;-78
2023/12/13 05:56:22;;;;;;;2.70;2.50;;;10.90;46.00;;;;;;10434157;28;20696;-78
2023/12/13 06:01:38;;;;;;;3.60;2.27;;;10.90;45.80;;;;;;10446337;28;20919;-79
2023/12/13 06:06:45;;;;;;;4.20;2.77;;;10.80;46.20;;;;;;10434649;28;20237;-78
2023/12/13 06:11:49;;;;;;;2.60;1.90;;;10.80;46.60;;;;;;10435723;28;20716;-77
2023/12/13 06:16:53;;;;;;;4.03;3.10;;;10.70;47.30;;;;;;10426626;28;20249;-79
2023/12/13 06:21:56;;;;;;;3.20;2.80;;;10.70;47.40;;;;;;10424628;28;20226;-78
2023/12/13 06:27:01;;;;;;;5.13;3.03;;;10.70;47.50;;;;;;10445254;28;20265;-77
2023/12/13 06:32:05;;;;;;;4.00;3.70;;;10.70;47.70;;;;;;10443640;28;20320;-78
2023/12/13 06:37:11;;;;;;;2.00;1.90;;;10.70;47.30;;;;;;10441707;28;20233;-78
2023/12/13 06:42:16;;;;;;;2.17;1.30;;;10.70;46.60;;;;;;10451167;28;20233;-78
2023/12/13 06:47:19;;;;;;;1.50;1.40;;;10.70;46.30;;;;;;10440413;28;20233;-79
2023/12/13 06:52:22;;;;;;;1.57;1.37;;;10.70;46.30;;;;;;10418745;28;20241;-80
2023/12/13 06:57:27;;;;;;;2.50;2.13;;;10.70;46.40;;;;;;10430072;28;20622;-80
2023/12/13 07:02:30;;;;;;;1.90;1.80;;;10.60;46.30;;;;;;10424612;28;20232;-83
2023/12/13 07:07:34;;;;;;;2.23;2.07;;;10.60;46.40;;;;;;10421332;28;20233;-79
2023/12/13 07:12:40;;;;;;;2.57;2.37;;;10.60;46.20;;;;;;10429034;28;20236;-80
2023/12/13 07:17:44;;;;;;;2.00;1.83;;;10.50;46.30;;;;;;10430197;28;20293;-79
2023/12/13 07:22:47;;;;;;;3.60;1.70;;;10.40;46.30;;;;;;10432188;28;20236;-77
2023/12/13 07:27:51;;;;;;;1.70;1.60;;;10.40;47.00;;;;;;10418646;28;20453;-77
2023/12/13 07:32:54;;;;;;;1.60;1.50;;;10.40;46.80;;;;;;10430097;28;20235;-77
2023/12/13 07:37:58;;;;;;;1.70;1.60;;;10.50;46.60;;;;;;10438636;28;20327;-77
2023/12/13 07:43:02;;;;;;;1.73;1.60;;;10.50;46.30;;;;;;10434003;28;20233;-77
2023/12/13 07:48:06;;;;;;;1.50;1.40;;;10.50;46.30;;;;;;10439762;28;20715;-77
2023/12/13 07:53:28;;;;;;;1.40;1.30;;;10.50;46.30;;;;;;10439491;28;20225;-77
2023/12/13 07:58:32;;;;;;;2.90;1.33;;;10.40;46.10;;;;;;10445281;28;20252;-77
2023/12/13 08:03:35;;;;;;;2.63;1.13;;;10.40;45.90;;;;;;10436722;28;20672;-77
2023/12/13 08:08:39;;;;;;;1.20;1.10;;;10.40;46.00;;;;;;10431882;28;20261;-77
2023/12/13 08:13:44;;;;;;;1.83;1.53;;;10.30;46.20;;;;;;10441040;28;20221;-77
2023/12/13 08:18:47;;;;;;;2.20;2.00;;;10.30;46.40;;;;;;10436994;28;20237;-77
2023/12/13 08:23:51;;;;;;;2.30;1.90;;;10.30;47.20;;;;;;10433983;28;20321;-77
2023/12/13 08:28:56;;;;;;;2.23;2.03;;;10.30;47.30;;;;;;10437703;28;20232;-77
2023/12/13 08:34:08;;;;;;;2.10;1.90;;;10.30;46.60;;;;;;10439732;28;20309;-77
2023/12/13 08:39:12;;;;;;;2.40;2.07;;;10.30;46.70;;;;;;10438805;28;20297;-77
2023/12/13 08:44:17;;;;;;;2.40;2.20;;;10.40;46.70;;;;;;10436602;28;20700;-77
2023/12/13 08:49:23;;;;;;;1.70;1.60;;;10.40;46.80;;;;;;10438730;28;20232;-77
2023/12/13 08:54:27;;;;;;;2.10;2.00;;;10.40;46.90;;;;;;10438719;28;20719;-77
2023/12/13 08:59:31;;;;;;;1.90;1.80;;;10.50;47.10;;;;;;10438237;28;20221;-77
2023/12/13 09:04:35;;;;;;;2.17;2.03;;;10.50;47.30;;;;;;10439485;28;20348;-77
2023/12/13 09:09:39;;;;;;;2.53;2.33;;;10.60;47.10;;;;;;10437591;28;20235;-77
2023/12/13 09:14:43;;;;;;;4.73;2.87;;;10.60;47.00;;;;;;10439574;28;20322;-77
2023/12/13 09:19:47;;;;;;;4.20;3.20;;;10.70;47.20;;;;;;10432596;28;20396;-77
2023/12/13 09:24:50;;;;;;;3.40;3.10;;;10.70;47.00;;;;;;10434805;28;20235;-77
2023/12/13 09:29:55;;;;;;;3.27;2.97;;;10.70;47.00;;;;;;10435985;28;20247;-77
2023/12/13 09:34:58;;;;;;;5.70;4.80;;;10.80;47.40;;;;;;10434874;28;20729;-77
2023/12/13 09:40:01;;;;;;;3.53;3.23;;;10.80;47.40;;;;;;10432135;28;20230;-77
2023/12/13 09:45:08;;;;;;;3.93;3.53;;;10.90;47.60;;;;;;10428825;28;20233;-77
2023/12/13 09:50:13;;;;;;;3.73;3.33;;;10.90;47.80;;;;;;10431670;28;20229;-77
2023/12/13 09:55:17;;;;;;;3.90;3.60;;;11.00;47.90;;;;;;10436279;28;20232;-77
2023/12/13 10:00:22;;;;;;;30.13;26.87;;;11.10;48.00;;;;;;10432709;28;20232;-77
2023/12/13 10:05:28;;;;;;;24.60;22.10;;;11.10;48.20;;;;;;10432235;28;20295;-77
2023/12/13 10:10:32;;;;;;;14.10;12.63;;;11.20;48.20;;;;;;10435931;28;20263;-77
2023/12/13 10:15:37;;;;;;;7.60;6.90;;;11.30;48.20;;;;;;10440107;28;20725;-76
2023/12/13 10:20:40;;;;;;;8.93;5.90;;;11.40;48.30;;;;;;10436243;28;20224;-77
2023/12/13 10:25:44;;;;;;;5.70;4.60;;;11.40;48.40;;;;;;10435358;28;20331;-77
2023/12/13 10:30:50;;;;;;;5.57;5.07;;;11.50;48.60;;;;;;10436662;28;20237;-77
2023/12/13 10:35:54;;;;;;;4.70;4.30;;;11.50;49.10;;;;;;10432975;28;20302;-77
2023/12/13 10:41:01;;;;;;;4.17;3.73;;;11.60;48.90;;;;;;10435288;28;20229;-77
2023/12/13 10:46:07;;;;;;;3.03;2.83;;;11.70;49.50;;;;;;10431168;28;20233;-77
2023/12/13 10:51:11;;;;;;;3.30;2.60;;;11.70;49.60;;;;;;10435827;28;20239;-77
2023/12/13 10:56:15;;;;;;;2.90;2.60;;;11.90;49.50;;;;;;10436557;28;20243;-77
2023/12/13 11:01:21;;;;;;;3.17;2.40;;;12.00;49.50;;;;;;10433791;28;20229;-77
2023/12/13 11:06:27;;;;;;;2.63;2.13;;;12.10;49.80;;;;;;10433488;28;20578;-77
2023/12/13 11:11:30;;;;;;;2.97;2.53;;;12.30;49.80;;;;;;10428781;28;20291;-77
2023/12/13 11:16:40;;;;;;;3.20;2.57;;;12.40;49.50;;;;;;10426893;28;20724;-77
2023/12/13 11:21:47;;;;;;;2.67;1.90;;;12.40;49.90;;;;;;10432832;28;20685;-77
2023/12/13 11:26:52;;;;;;;1.70;1.60;;;12.50;49.50;;;;;;10421517;28;20599;-76
2023/12/13 11:31:59;;;;;;;2.93;1.40;;;12.60;49.30;;;;;;10421376;28;20257;-76
2023/12/13 11:37:04;;;;;;;1.87;1.77;;;12.60;48.90;;;;;;10425627;28;20287;-77
2023/12/13 11:42:09;;;;;;;2.57;2.10;;;12.70;49.20;;;;;;10424111;28;20275;-77
2023/12/13 11:47:15;;;;;;;3.73;2.90;;;12.70;48.70;;;;;;10427346;28;20237;-76
2023/12/13 11:52:18;;;;;;;4.40;3.07;;;12.80;49.00;;;;;;10426386;28;20237;-77
2023/12/13 11:57:21;;;;;;;3.37;3.00;;;12.80;48.80;;;;;;10424415;28;20240;-77
2023/12/13 12:02:26;;;;;;;5.50;3.53;;;12.80;48.80;;;;;;10428578;28;20706;-77
2023/12/13 12:07:29;;;;;;;3.97;3.50;;;12.80;48.70;;;;;;10427519;28;20259;-77
2023/12/13 12:12:35;;;;;;;3.43;3.13;;;12.90;49.00;;;;;;10422107;28;20324;-80
2023/12/13 12:17:40;;;;;;;2.83;2.30;;;12.90;49.10;;;;;;10427106;28;20232;-76
2023/12/13 12:22:43;;;;;;;2.77;2.10;;;12.90;49.40;;;;;;10427410;28;20236;-76
2023/12/13 12:27:48;;;;;;;1.80;1.70;;;12.90;49.50;;;;;;10430658;28;20636;-76
2023/12/13 12:32:53;;;;;;;2.00;1.90;;;12.90;49.40;;;;;;10425245;28;20331;-75
2023/12/13 12:37:56;;;;;;;2.57;1.70;;;13.00;49.40;;;;;;10421767;28;20240;-76
2023/12/13 12:43:00;;;;;;;2.17;2.00;;;13.00;49.40;;;;;;10413327;28;20228;-74
2023/12/13 12:48:04;;;;;;;2.13;1.77;;;13.00;48.60;;;;;;10403978;28;20613;-76
2023/12/13 12:53:08;;;;;;;2.60;1.80;;;13.10;48.60;;;;;;10422791;28;20252;-76
2023/12/13 12:58:12;;;;;;;2.70;1.90;;;13.10;48.60;;;;;;10419223;28;20656;-76
2023/12/13 13:03:16;;;;;;;2.10;2.00;;;13.00;48.40;;;;;;10415404;28;20228;-80
2023/12/13 13:08:19;;;;;;;1.80;1.70;;;13.10;48.60;;;;;;10412612;28;20233;-77
2023/12/13 13:13:27;;;;;;;2.80;2.23;;;13.10;49.00;;;;;;10404901;28;21099;-77
2023/12/13 13:18:34;;;;;;;2.10;1.97;;;13.10;48.80;;;;;;10414174;28;20229;-77
2023/12/13 13:23:38;;;;;;;1.87;1.73;;;13.10;48.60;;;;;;10387763;28;20225;-77
2023/12/13 13:28:41;;;;;;;2.30;2.10;;;13.10;48.60;;;;;;10410948;28;20752;-76
2023/12/13 13:33:46;;;;;;;2.17;1.60;;;13.10;48.40;;;;;;10408524;28;20234;-76
2023/12/13 13:38:50;;;;;;;1.77;1.10;;;13.00;48.50;;;;;;10415336;28;20312;-76
2023/12/13 13:43:53;;;;;;;2.50;1.30;;;13.00;48.40;;;;;;10414797;28;20229;-76
2023/12/13 13:48:59;;;;;;;1.20;1.07;;;13.00;48.30;;;;;;10405210;28;20831;-77
2023/12/13 13:54:02;;;;;;;2.90;1.90;;;13.00;48.50;;;;;;10404658;28;20233;-76
2023/12/13 13:59:09;;;;;;;2.67;2.20;;;12.90;48.20;;;;;;10411669;28;20226;-76
2023/12/13 14:04:14;;;;;;;1.60;1.50;;;12.80;48.20;;;;;;10411361;28;20645;-76
2023/12/13 14:09:17;;;;;;;2.27;1.63;;;12.80;48.30;;;;;;10405753;28;20730;-76
2023/12/13 14:14:20;;;;;;;1.93;1.53;;;12.80;48.10;;;;;;10413566;28;20270;-77
2023/12/13 14:19:25;;;;;;;2.20;1.57;;;12.80;48.80;;;;;;10408524;28;20228;-76
2023/12/13 14:24:29;;;;;;;1.30;1.20;;;12.80;48.20;;;;;;10409113;28;20253;-76
2023/12/13 14:29:32;;;;;;;2.80;1.80;;;12.80;48.20;;;;;;10411130;28;20312;-76
2023/12/13 14:34:36;;;;;;;1.60;1.50;;;12.70;48.20;;;;;;10409150;28;20335;-77
2023/12/13 14:39:40;;;;;;;3.10;2.60;;;12.60;48.20;;;;;;10409013;28;20225;-76
2023/12/13 14:44:43;;;;;;;3.53;3.10;;;12.60;48.20;;;;;;10414193;28;20237;-76
2023/12/13 14:49:48;;;;;;;4.07;3.77;;;12.60;48.30;;;;;;10409818;28;20882;-76
2023/12/13 14:54:52;;;;;;;3.50;3.00;;;12.50;48.30;;;;;;10404884;28;20241;-76
2023/12/13 14:59:55;;;;;;;3.50;3.20;;;12.50;48.50;;;;;;10412156;28;20251;-76
2023/12/13 15:04:59;;;;;;;8.80;7.27;;;12.60;48.50;;;;;;10418969;28;20268;-76
2023/12/13 15:10:03;;;;;;;15.40;12.50;;;12.60;48.40;;;;;;10415188;28;20229;-77
2023/12/13 15:15:08;;;;;;;16.57;12.87;;;12.60;48.40;;;;;;10411044;28;20228;-76
2023/12/13 15:20:13;;;;;;;11.70;9.67;;;12.70;48.20;;;;;;10411706;28;20594;-76
2023/12/13 15:25:16;;;;;;;8.63;7.40;;;12.70;48.20;;;;;;10408075;28;20806;-76
2023/12/13 15:30:21;;;;;;;8.33;7.03;;;12.70;48.20;;;;;;10405956;28;20768;-76
2023/12/13 15:35:26;;;;;;;7.63;6.30;;;12.70;48.10;;;;;;10407636;28;20582;-76
2023/12/13 15:40:29;;;;;;;7.70;7.00;;;12.70;48.00;;;;;;10409063;28;20240;-76
2023/12/13 15:45:32;;;;;;;7.97;6.40;;;12.60;47.80;;;;;;10409157;28;20244;-76
2023/12/13 15:50:37;;;;;;;7.30;6.57;;;12.60;48.10;;;;;;10411398;28;20237;-76
2023/12/13 15:55:40;;;;;;;7.50;5.20;;;12.50;48.10;;;;;;10418021;28;20265;-76
2023/12/13 16:00:43;;;;;;;5.90;4.70;;;12.50;48.10;;;;;;10414004;28;20320;-76
2023/12/13 16:05:51;;;;;;;5.03;4.43;;;12.50;48.10;;;;;;10421358;28;20383;-76
2023/12/13 16:10:56;;;;;;;4.57;4.17;;;12.50;48.10;;;;;;10413353;28;20992;-75
2023/12/13 16:15:59;;;;;;;5.10;4.63;;;12.50;48.10;;;;;;10420678;28;20609;-76
2023/12/13 16:21:04;;;;;;;4.87;4.47;;;12.50;48.10;;;;;;10430678;28;20237;-76
2023/12/13 16:26:08;;;;;;;4.77;4.30;;;12.50;48.00;;;;;;10431309;28;20247;-76
2023/12/13 16:31:11;;;;;;;8.23;6.80;;;12.50;47.90;;;;;;10432531;28;20229;-76
2023/12/13 16:36:19;;;;;;;13.90;10.70;;;12.50;47.90;;;;;;10428306;28;20290;-76
2023/12/13 16:41:22;;;;;;;10.00;9.00;;;12.50;48.00;;;;;;10424203;28;20440;-77
2023/12/13 16:46:27;;;;;;;12.20;10.40;;;12.50;47.90;;;;;;10419623;28;20241;-77
2023/12/13 16:51:32;;;;;;;9.93;8.80;;;12.50;47.80;;;;;;10427713;28;20243;-77
2023/12/13 16:56:36;;;;;;;7.70;6.90;;;12.50;47.80;;;;;;10420923;28;20316;-77
2023/12/13 17:01:39;;;;;;;7.47;6.10;;;12.50;47.70;;;;;;10391826;28;20288;-77
2023/12/13 17:06:43;;;;;;;8.60;7.73;;;12.50;47.50;;;;;;10423888;28;21121;-77
2023/12/13 17:11:47;;;;;;;8.67;7.77;;;12.50;47.50;;;;;;10428106;28;20363;-79
2023/12/13 17:16:51;;;;;;;19.13;16.37;;;12.50;47.40;;;;;;10432668;28;20229;-78
2023/12/13 17:21:55;;;;;;;15.87;14.07;;;12.50;47.20;;;;;;10432718;28;20872;-78
2023/12/13 17:26:59;;;;;;;15.63;13.90;;;12.50;47.00;;;;;;10431485;28;20245;-78
2023/12/13 17:32:03;;;;;;;17.13;15.33;;;12.40;46.90;;;;;;10432356;28;20335;-78
2023/12/13 17:37:08;;;;;;;14.37;12.90;;;12.40;46.80;;;;;;10431571;28;20237;-78
2023/12/13 17:42:12;;;;;;;14.27;12.77;;;12.40;46.50;;;;;;10431588;28;20659;-78
2023/12/13 17:47:16;;;;;;;23.13;19.23;;;12.30;46.30;;;;;;10431264;28;20233;-78
2023/12/13 17:52:22;;;;;;;15.03;13.50;;;12.30;46.10;;;;;;10432465;28;20328;-78
2023/12/13 17:57:25;;;;;;;13.73;12.40;;;12.10;45.80;;;;;;10432269;28;20237;-79
2023/12/13 18:02:29;;;;;;;12.83;11.53;;;11.80;46.00;;;;;;10429558;28;20762;-78
2023/12/13 18:07:34;;;;;;;11.80;9.90;;;11.70;46.80;;;;;;10429211;28;20655;-77
2023/12/13 18:12:38;;;;;;;9.90;9.00;;;11.60;47.20;;;;;;10429809;28;20233;-77
2023/12/13 18:17:41;;;;;;;12.03;10.23;;;11.60;47.20;;;;;;10429686;28;20233;-77
2023/12/13 18:22:46;;;;;;;8.27;7.53;;;11.60;47.20;;;;;;10430225;28;20229;-78
2023/12/13 18:27:49;;;;;;;7.10;6.30;;;11.60;46.90;;;;;;10432222;28;20232;-77
2023/12/13 18:32:52;;;;;;;9.07;8.23;;;11.60;46.90;;;;;;10432649;28;20564;-77
2023/12/13 18:37:58;;;;;;;23.43;17.80;;;11.50;46.70;;;;;;10430061;28;20291;-78
2023/12/13 18:43:01;;;;;;;21.67;17.30;;;11.50;46.80;;;;;;10431563;28;20237;-78
2023/12/13 18:48:05;;;;;;;12.70;11.10;;;11.40;47.00;;;;;;10429943;28;20915;-77
2023/12/13 18:53:10;;;;;;;12.33;11.20;;;11.40;47.10;;;;;;10430001;28;20241;-78
2023/12/13 18:58:14;;;;;;;11.30;10.10;;;11.40;47.10;;;;;;10429896;28;20257;-77
2023/12/13 19:03:17;;;;;;;10.60;9.70;;;11.40;47.10;;;;;;10430240;28;20244;-78
2023/12/13 19:08:21;;;;;;;15.67;13.30;;;11.40;47.10;;;;;;10435212;28;20233;-77
2023/12/13 19:13:25;;;;;;;8.90;8.10;;;11.40;47.30;;;;;;10433972;28;20229;-77
2023/12/13 19:18:28;;;;;;;8.33;7.53;;;11.40;47.20;;;;;;10433509;28;20294;-78
2023/12/13 19:23:33;;;;;;;7.00;6.40;;;11.30;47.50;;;;;;10436892;28;20259;-77
2023/12/13 19:28:36;;;;;;;7.23;6.60;;;11.30;47.90;;;;;;10436513;28;20236;-77
2023/12/13 19:33:40;;;;;;;3.67;2.90;;;11.20;47.70;;;;;;10422776;28;20240;-75
2023/12/13 19:38:45;;;;;;;3.47;2.90;;;11.20;47.70;;;;;;10424712;28;20241;-76
2023/12/13 19:43:48;;;;;;;4.50;4.07;;;11.20;48.00;;;;;;10434322;28;20238;-78
2023/12/13 19:48:51;;;;;;;2.80;2.60;;;11.20;48.00;;;;;;10451764;28;20233;-81
2023/12/13 19:53:56;;;;;;;3.77;2.70;;;11.20;48.00;;;;;;10454659;28;20232;-78
2023/12/13 19:58:59;;;;;;;2.80;2.60;;;11.10;48.10;;;;;;10455435;28;20239;-76
2023/12/13 20:04:04;;;;;;;2.40;2.20;;;11.10;48.10;;;;;;10446484;28;20232;-76
2023/12/13 20:09:09;;;;;;;2.20;2.00;;;11.10;48.20;;;;;;10454575;28;20646;-77
2023/12/13 20:14:14;;;;;;;2.17;2.03;;;11.00;48.10;;;;;;10454714;28;20240;-77
2023/12/13 20:19:17;;;;;;;2.60;1.73;;;11.00;48.20;;;;;;10454985;28;20326;-77
2023/12/13 20:24:22;;;;;;;1.90;1.80;;;10.90;48.20;;;;;;10454690;28;20233;-77
2023/12/13 20:29:25;;;;;;;1.40;1.30;;;10.80;48.20;;;;;;10454725;28;20232;-74
2023/12/13 20:34:31;;;;;;;1.60;1.50;;;10.80;48.30;;;;;;10456016;28;20237;-75
2023/12/13 20:39:36;;;;;;;1.70;1.60;;;10.80;48.50;;;;;;10448433;28;20228;-75
2023/12/13 20:44:40;;;;;;;1.90;1.70;;;10.70;48.40;;;;;;10448032;28;20233;-75
2023/12/13 20:49:43;;;;;;;3.10;2.50;;;10.70;48.40;;;;;;10447404;28;20235;-74
2023/12/13 20:54:48;;;;;;;2.37;2.17;;;10.70;48.40;;;;;;10447788;28;20782;-74
2023/12/13 20:59:52;;;;;;;2.17;2.00;;;10.60;48.30;;;;;;10440498;28;20933;-74
2023/12/13 21:04:55;;;;;;;1.37;1.30;;;10.60;48.20;;;;;;10447153;28;20319;-76
2023/12/13 21:10:00;;;;;;;1.50;1.40;;;10.60;48.20;;;;;;10445726;28;20237;-77
2023/12/13 21:15:03;;;;;;;2.00;1.90;;;10.50;48.20;;;;;;10444497;28;20648;-77
2023/12/13 21:20:10;;;;;;;2.03;1.83;;;10.40;48.20;;;;;;10446391;28;20286;-76
2023/12/13 21:25:16;;;;;;;2.40;2.20;;;10.40;48.40;;;;;;10446578;28;20351;-75
2023/12/13 21:30:19;;;;;;;2.20;2.00;;;10.40;48.30;;;;;;10444435;28;20319;-76
2023/12/13 21:35:23;;;;;;;1.60;1.50;;;10.40;48.20;;;;;;10407348;28;20229;-75
2023/12/13 21:40:27;;;;;;;1.77;1.67;;;10.40;48.30;;;;;;10419571;28;20240;-77
2023/12/13 21:45:30;;;;;;;3.20;1.90;;;10.40;48.30;;;;;;10408121;28;20284;-77
2023/12/13 21:50:35;;;;;;;1.70;1.60;;;10.40;48.30;;;;;;10403813;28;20726;-77
2023/12/13 21:55:40;;;;;;;2.17;1.50;;;10.40;48.30;;;;;;10403229;28;20319;-77
2023/12/13 22:00:44;;;;;;;1.73;1.63;;;10.40;48.20;;;;;;10403399;28;20788;-77
2023/12/13 22:05:48;;;;;;;1.70;1.60;;;10.50;48.10;;;;;;10403676;28;20303;-77
2023/12/13 22:10:53;;;;;;;1.63;1.53;;;10.50;48.10;;;;;;10403570;28;20233;-77
2023/12/13 22:15:56;;;;;;;1.90;1.80;;;10.40;48.00;;;;;;10403120;28;20249;-77
2023/12/13 22:21:00;;;;;;;1.87;1.77;;;10.40;47.90;;;;;;10403201;28;20237;-78
2023/12/13 22:26:06;;;;;;;3.60;1.90;;;10.40;47.80;;;;;;10402656;28;20678;-77
2023/12/13 22:31:09;;;;;;;2.07;1.97;;;10.40;47.80;;;;;;10402705;28;20279;-77
2023/12/13 22:36:12;;;;;;;2.23;2.10;;;10.30;47.80;;;;;;10402140;28;20244;-77
2023/12/13 22:41:17;;;;;;;1.90;1.80;;;10.20;47.80;;;;;;10401949;28;20242;-77
2023/12/13 22:46:20;;;;;;;1.57;1.50;;;10.20;47.60;;;;;;10401935;28;20233;-77
2023/12/13 22:51:23;;;;;;;2.00;1.80;;;10.10;47.70;;;;;;10401746;28;20233;-77
2023/12/13 22:56:28;;;;;;;1.33;1.33;;;10.10;47.70;;;;;;10401424;28;20225;-77
2023/12/13 23:01:32;;;;;;;1.47;1.40;;;10.10;47.40;;;;;;10401100;28;20939;-77
2023/12/13 23:06:35;;;;;;;1.40;1.40;;;10.10;47.30;;;;;;10400473;28;20240;-77
2023/12/13 23:11:40;;;;;;;1.30;1.20;;;10.10;47.20;;;;;;10401230;28;20296;-77
2023/12/13 23:16:43;;;;;;;1.30;1.20;;;10.00;47.10;;;;;;10443351;28;20233;-77
2023/12/13 23:21:47;;;;;;;1.30;1.20;;;10.10;47.20;;;;;;10443817;28;20225;-77
2023/12/13 23:26:51;;;;;;;1.20;1.20;;;10.10;47.20;;;;;;10442580;28;20327;-77
2023/12/13 23:31:54;;;;;;;1.00;1.00;;;10.10;47.20;;;;;;10443682;28;20340;-77
2023/12/13 23:36:57;;;;;;;0.90;0.90;;;10.10;47.20;;;;;;10442665;28;20237;-77
2023/12/13 23:42:02;;;;;;;1.23;1.20;;;10.10;47.10;;;;;;10443471;28;20235;-77
2023/12/13 23:47:06;;;;;;;1.60;1.50;;;10.10;47.00;;;;;;10442483;28;20233;-77
2023/12/13 23:52:09;;;;;;;1.93;1.83;;;10.10;46.90;;;;;;10443245;28;20247;-77
2023/12/13 23:57:13;;;;;;;2.43;2.07;;;10.10;46.90;;;;;;10442169;28;20626;-77
